Time;durP1;ratioP1;P1;durP2;ratioP2;P2;SDS_P1;SDS_P2;PMS_P1;PMS_P2;Temp;Humidity;BMP_temperature;BMP_pressure;BME280_temperature;BME280_humidity;BME280_pressure;Samples;Min_cycle;Max_cycle;Signal;HPM_P1;HPM_P2
2022/05/25 03:02:34;;;;;;;16.08;10.75;;;9.80;99.90;;;;;;6244850;22;20016;-78
2022/05/25 03:05:00;;;;;;;21.55;12.25;;;9.70;99.90;;;;;;6218717;23;20062;-78
2022/05/25 03:07:41;;;;;;;20.63;11.35;;;9.70;99.90;;;;;;6219456;23;20035;-78
2022/05/25 03:10:24;;;;;;;;;;;;;;;;;;;;;
2022/05/25 03:12:54;;;;;;;16.35;10.88;;;9.70;99.90;;;;;;6188524;23;20378;-80
2022/05/25 03:15:21;;;;;;;19.58;11.32;;;9.70;99.90;;;;;;6214143;23;20021;-78
2022/05/25 03:17:49;;;;;;;19.60;11.73;;;9.70;99.90;;;;;;6188728;23;20017;-78
2022/05/25 03:20:16;;;;;;;15.60;11.00;;;9.70;99.90;;;;;;6189112;23;20078;-79
2022/05/25 03:22:49;;;;;;;21.67;11.43;;;9.70;99.90;;;;;;6187204;23;20342;-79
2022/05/25 03:25:33;;;;;;;20.75;12.20;;;9.70;99.90;;;;;;6191179;23;20323;-77
2022/05/25 03:28:03;;;;;;;21.73;12.55;;;9.70;99.90;;;;;;6190596;23;20036;-79
2022/05/25 03:30:56;;;;;;;23.27;12.48;;;9.70;99.90;;;;;;6190435;23;20020;-78
2022/05/25 03:33:37;;;;;;;20.98;12.13;;;9.70;99.90;;;;;;6174200;23;20468;-79
2022/05/25 03:36:58;;;;;;;;;;;;;;;;;;;;;
2022/05/25 03:39:51;;;;;;;;;;;;;;;;;;;;;
2022/05/25 03:42:45;;;;;;;20.80;11.90;;;9.80;99.90;;;;;;6216273;23;20020;-78
2022/05/25 03:48:35;;;;;;;19.13;12.40;;;9.80;99.90;;;;;;6125571;23;20109;-79
2022/05/25 03:51:02;;;;;;;18.35;12.02;;;9.80;99.90;;;;;;6076458;23;20010;-78
2022/05/25 03:53:28;;;;;;;20.83;11.38;;;9.80;99.90;;;;;;6153300;23;20020;-80
2022/05/25 03:56:02;;;;;;;21.30;11.77;;;9.80;99.90;;;;;;6190537;23;20115;-78
2022/05/25 03:58:31;;;;;;;19.52;11.30;;;9.80;99.90;;;;;;6164577;23;20008;-78
2022/05/25 04:01:30;;;;;;;;;;;;;;;;;;;;;
2022/05/25 04:04:36;;;;;;;;;;;;;;;;;;;;;
2022/05/25 04:07:49;;;;;;;23.10;12.18;;;9.80;99.90;;;;;;6219050;23;20400;-78
2022/05/25 04:13:13;;;;;;;17.83;11.55;;;9.80;99.90;;;;;;6289644;22;20059;-79
2022/05/25 04:16:48;;;;;;;22.55;11.43;;;9.90;99.90;;;;;;6218609;22;20011;-79
2022/05/25 04:27:15;;;;;;;18.92;10.85;;;10.00;99.90;;;;;;5976637;23;20067;-78
2022/05/25 04:29:53;;;;;;;21.75;11.38;;;10.00;99.90;;;;;;6056752;23;20127;-78
2022/05/25 04:32:44;;;;;;;18.45;11.68;;;10.00;99.90;;;;;;6066236;23;20070;-79
2022/05/25 04:35:14;;;;;;;18.48;10.98;;;10.10;99.90;;;;;;6065488;23;20023;-78
2022/05/25 04:37:49;;;;;;;18.23;10.55;;;10.10;99.90;;;;;;6042460;23;20022;-77
2022/05/25 04:44:24;;;;;;;19.23;10.68;;;10.20;99.90;;;;;;6099161;23;20026;-78
2022/05/25 04:47:21;;;;;;;16.67;10.60;;;10.20;99.90;;;;;;6099632;23;20013;-77
2022/05/25 04:50:21;;;;;;;;;;;;;;;;;;;;;
2022/05/25 04:52:42;;;;;;;17.42;10.57;;;10.30;99.90;;;;;;6110118;22;20478;-81
2022/05/25 04:55:09;;;;;;;21.60;12.07;;;10.40;99.90;;;;;;6250256;22;20047;-79
2022/05/25 04:57:35;;;;;;;19.65;11.40;;;10.40;99.90;;;;;;6225019;22;20018;-78
2022/05/25 05:00:06;;;;;;;20.65;10.93;;;10.50;99.90;;;;;;6278521;22;20012;-78
2022/05/25 05:02:31;;;;;;;17.65;11.35;;;10.50;99.90;;;;;;6249983;22;20506;-80
2022/05/25 05:04:57;;;;;;;19.08;11.85;;;10.50;99.90;;;;;;6250401;22;20011;-78
2022/05/25 05:07:32;;;;;;;23.65;12.88;;;10.60;99.90;;;;;;6277234;22;20031;-79
2022/05/25 05:10:01;;;;;;;19.67;12.55;;;10.60;99.90;;;;;;6250025;22;20019;-78
2022/05/25 05:12:30;;;;;;;21.10;12.82;;;10.60;99.90;;;;;;6249847;22;20012;-78
2022/05/25 05:14:57;;;;;;;18.67;11.80;;;10.70;99.90;;;;;;6250362;22;20046;-79
2022/05/25 05:17:24;;;;;;;23.95;13.23;;;10.80;99.90;;;;;;6250120;22;20015;-81
2022/05/25 05:19:49;;;;;;;19.85;11.98;;;10.80;99.90;;;;;;6224857;22;20023;-78
2022/05/25 05:22:17;;;;;;;22.02;13.25;;;10.80;99.90;;;;;;6277257;22;20012;-77
2022/05/25 05:24:42;;;;;;;19.73;12.88;;;10.80;99.90;;;;;;6277470;22;20015;-81
2022/05/25 05:27:08;;;;;;;22.30;12.65;;;10.90;99.90;;;;;;6277881;22;20003;-79
2022/05/25 05:29:34;;;;;;;20.55;12.20;;;11.00;99.90;;;;;;6277589;22;20011;-81
2022/05/25 05:32:00;;;;;;;25.67;13.57;;;11.00;99.90;;;;;;6249929;22;20335;-80
2022/05/25 05:34:28;;;;;;;17.85;12.05;;;11.00;99.90;;;;;;6224960;22;20022;-80
2022/05/25 05:37:18;;;;;;;20.27;11.52;;;11.10;99.90;;;;;;6250096;22;20019;-79
2022/05/25 05:39:48;;;;;;;19.35;11.80;;;11.20;99.90;;;;;;6275631;22;20142;-79
2022/05/25 05:42:17;;;;;;;20.23;12.07;;;11.20;99.90;;;;;;6276524;22;20015;-79
2022/05/25 05:45:07;;;;;;;18.83;12.30;;;11.30;99.90;;;;;;6249752;22;20066;-78
2022/05/25 05:47:42;;;;;;;19.27;11.93;;;11.40;99.90;;;;;;6275408;22;20007;-78
2022/05/25 05:50:09;;;;;;;18.70;11.45;;;11.40;99.90;;;;;;6250045;22;20334;-78
2022/05/25 05:52:35;;;;;;;16.77;11.13;;;11.40;99.90;;;;;;6249513;22;20016;-80
2022/05/25 05:55:02;;;;;;;20.50;11.90;;;11.50;99.90;;;;;;6251470;22;20468;-76
2022/05/25 05:57:28;;;;;;;25.75;13.13;;;11.60;99.90;;;;;;6279882;22;20078;-76
2022/05/25 05:59:53;;;;;;;20.15;11.65;;;11.60;99.90;;;;;;6251824;22;20023;-79
2022/05/25 06:02:19;;;;;;;22.10;11.90;;;11.70;99.90;;;;;;6253924;22;20357;-79
2022/05/25 06:04:45;;;;;;;18.60;11.05;;;11.70;99.90;;;;;;6279707;22;20011;-76
2022/05/25 06:07:11;;;;;;;19.42;11.18;;;11.80;99.90;;;;;;6252026;22;20318;-77
2022/05/25 06:09:37;;;;;;;22.20;11.23;;;11.80;99.90;;;;;;6251173;22;20380;-78
2022/05/25 06:12:02;;;;;;;20.95;11.07;;;11.90;99.90;;;;;;6249086;22;20090;-79
2022/05/25 06:14:28;;;;;;;21.45;11.57;;;11.90;99.90;;;;;;6225201;22;20019;-79
2022/05/25 06:19:38;;;;;;;22.75;11.57;;;12.10;99.90;;;;;;6277238;22;20012;-79
2022/05/25 06:22:12;;;;;;;21.05;11.85;;;12.10;99.90;;;;;;6276754;22;20095;-77
2022/05/25 06:24:42;;;;;;;21.40;11.40;;;12.20;99.90;;;;;;6277020;22;20019;-77
2022/05/25 06:27:11;;;;;;;19.88;11.70;;;12.20;99.90;;;;;;6275211;22;20434;-76
2022/05/25 06:29:39;;;;;;;23.13;12.27;;;12.30;99.90;;;;;;6249871;22;20008;-78
2022/05/25 06:32:06;;;;;;;19.02;11.38;;;12.40;99.90;;;;;;6276548;22;20042;-76
2022/05/25 06:34:33;;;;;;;15.68;10.68;;;12.40;99.90;;;;;;6249442;22;20030;-77
2022/05/25 06:36:58;;;;;;;15.43;9.85;;;12.50;99.90;;;;;;6276421;22;20014;-77
2022/05/25 06:39:24;;;;;;;18.02;10.68;;;12.50;99.90;;;;;;6249133;22;20008;-77
2022/05/25 06:41:50;;;;;;;16.00;9.73;;;12.50;99.90;;;;;;6276537;22;20337;-79
2022/05/25 06:44:17;;;;;;;17.13;9.95;;;12.60;99.90;;;;;;6249388;22;20015;-78
2022/05/25 06:46:43;;;;;;;18.17;10.93;;;12.50;99.90;;;;;;6276747;22;20008;-79
2022/05/25 06:49:09;;;;;;;17.00;10.20;;;12.60;99.90;;;;;;6276492;22;20008;-78
2022/05/25 06:51:36;;;;;;;20.15;10.23;;;12.60;99.90;;;;;;6249429;22;20041;-78
2022/05/25 06:54:02;;;;;;;13.27;8.68;;;12.70;99.90;;;;;;6275285;22;20090;-81
2022/05/25 06:56:28;;;;;;;15.35;10.02;;;12.70;99.90;;;;;;6252048;22;20016;-77
2022/05/25 06:58:56;;;;;;;15.60;8.95;;;12.80;99.90;;;;;;6278624;22;20008;-79
2022/05/25 07:01:23;;;;;;;18.15;8.43;;;12.80;99.90;;;;;;6251536;22;20020;-77
2022/05/25 07:03:52;;;;;;;14.75;7.82;;;12.90;99.90;;;;;;6251545;22;20011;-79
2022/05/25 07:06:19;;;;;;;15.65;8.52;;;13.00;99.90;;;;;;6278340;22;20434;-78
2022/05/25 07:08:45;;;;;;;17.10;8.57;;;13.00;99.90;;;;;;6251263;22;20015;-76
2022/05/25 07:11:12;;;;;;;13.63;8.13;;;13.10;99.90;;;;;;6251092;22;20014;-76
2022/05/25 07:13:39;;;;;;;13.50;7.63;;;13.10;99.90;;;;;;6254653;22;20368;-76
2022/05/25 07:16:07;;;;;;;16.02;7.95;;;13.10;99.90;;;;;;6281428;22;20012;-77
2022/05/25 07:18:33;;;;;;;12.82;8.15;;;13.20;99.90;;;;;;6251660;22;20083;-78
2022/05/25 07:21:06;;;;;;;14.07;7.63;;;13.30;99.90;;;;;;6253785;22;20008;-76
2022/05/25 07:23:36;;;;;;;17.23;7.93;;;13.40;99.90;;;;;;6251183;22;20012;-76
2022/05/25 07:26:03;;;;;;;12.75;7.30;;;13.50;99.90;;;;;;6225609;22;20003;-76
2022/05/25 07:28:28;;;;;;;11.60;6.10;;;13.60;99.90;;;;;;6251117;22;20019;-77
2022/05/25 07:31:01;;;;;;;15.50;6.65;;;13.70;99.90;;;;;;6278492;22;20004;-77
2022/05/25 07:33:28;;;;;;;10.35;6.15;;;13.80;99.90;;;;;;6249747;22;20066;-77
2022/05/25 07:35:53;;;;;;;10.02;6.53;;;13.90;99.90;;;;;;6250991;22;20015;-76
2022/05/25 07:38:19;;;;;;;12.18;6.82;;;13.90;99.90;;;;;;6250881;22;20069;-77
2022/05/25 07:40:46;;;;;;;11.85;6.68;;;14.00;99.90;;;;;;6225553;22;20346;-78
2022/05/25 07:43:16;;;;;;;15.20;6.90;;;13.90;99.90;;;;;;6250665;22;20012;-77
2022/05/25 07:45:44;;;;;;;10.98;6.22;;;14.00;99.90;;;;;;6250883;22;20018;-76
2022/05/25 07:48:09;;;;;;;13.60;6.30;;;14.10;99.90;;;;;;6250815;22;20015;-76
2022/05/25 07:50:35;;;;;;;8.90;5.43;;;14.20;99.90;;;;;;6250706;22;20022;-77
2022/05/25 07:53:02;;;;;;;9.27;5.50;;;14.30;99.90;;;;;;6277976;22;20087;-76
2022/05/25 07:55:28;;;;;;;11.98;5.60;;;14.40;99.90;;;;;;6278186;22;20401;-76
2022/05/25 07:57:54;;;;;;;11.10;5.05;;;14.60;99.90;;;;;;6278077;22;20007;-77
2022/05/25 08:00:24;;;;;;;14.48;5.13;;;14.70;99.90;;;;;;6250618;22;20503;-78
2022/05/25 08:05:46;;;;;;;7.85;4.40;;;14.80;99.90;;;;;;6277694;22;20392;-78
2022/05/25 08:08:21;;;;;;;10.68;5.10;;;14.70;99.90;;;;;;6277693;22;20018;-77
2022/05/25 08:11:01;;;;;;;8.70;5.10;;;14.70;99.90;;;;;;6250711;22;20014;-76
2022/05/25 08:13:27;;;;;;;12.15;5.22;;;14.70;99.90;;;;;;6250293;22;20011;-76
2022/05/25 08:15:53;;;;;;;10.10;4.78;;;14.80;99.90;;;;;;6277699;22;20460;-75
2022/05/25 08:18:19;;;;;;;11.52;5.32;;;14.80;99.90;;;;;;6250664;22;20099;-75
2022/05/25 08:20:45;;;;;;;10.13;5.22;;;15.00;99.90;;;;;;6250518;22;20018;-78
2022/05/25 08:23:14;;;;;;;7.15;5.13;;;15.00;99.90;;;;;;6250112;22;20047;-76
2022/05/25 08:25:41;;;;;;;9.07;5.55;;;15.00;99.90;;;;;;6277925;22;20007;-77
2022/05/25 08:28:07;;;;;;;8.77;5.63;;;15.10;99.90;;;;;;6225323;22;20018;-75
2022/05/25 08:30:35;;;;;;;7.53;4.57;;;15.10;99.90;;;;;;6277802;22;20436;-76
2022/05/25 08:33:01;;;;;;;7.25;4.65;;;15.10;99.90;;;;;;6225201;22;20051;-77
2022/05/25 08:35:27;;;;;;;7.03;4.70;;;15.00;99.90;;;;;;6277898;22;20015;-76
2022/05/25 08:37:54;;;;;;;6.18;4.35;;;15.10;99.90;;;;;;6250503;22;20098;-75
2022/05/25 08:40:22;;;;;;;6.72;4.13;;;15.10;99.90;;;;;;6250336;22;20050;-77
2022/05/25 08:43:02;;;;;;;9.32;5.28;;;15.10;99.90;;;;;;6250637;22;20068;-77
2022/05/25 08:45:41;;;;;;;8.00;5.07;;;15.10;99.90;;;;;;6275941;22;20111;-76
2022/05/25 08:48:11;;;;;;;6.30;4.20;;;15.20;99.90;;;;;;6277692;22;20334;-77
2022/05/25 08:50:37;;;;;;;8.65;4.70;;;15.40;99.90;;;;;;6250103;22;20012;-77
2022/05/25 08:53:06;;;;;;;7.60;4.45;;;15.40;99.90;;;;;;6250345;22;20523;-77
2022/05/25 08:55:51;;;;;;;8.73;3.92;;;15.40;99.90;;;;;;6250225;22;20090;-78
2022/05/25 08:58:18;;;;;;;6.05;3.40;;;15.40;99.90;;;;;;6250269;22;20019;-78
2022/05/25 09:00:46;;;;;;;7.85;3.88;;;15.40;99.90;;;;;;6249890;22;20016;-78
2022/05/25 09:03:22;;;;;;;7.90;4.00;;;15.50;99.90;;;;;;6277415;22;20047;-77
2022/05/25 09:06:14;;;;;;;5.68;3.80;;;15.50;99.90;;;;;;6250287;22;20007;-76
2022/05/25 09:08:51;;;;;;;5.10;3.75;;;15.60;99.90;;;;;;6225765;22;20011;-78
2022/05/25 09:11:24;;;;;;;6.30;3.88;;;15.70;99.90;;;;;;6277134;22;20020;-79
2022/05/25 09:14:10;;;;;;;7.30;4.50;;;15.70;99.90;;;;;;6250191;22;20020;-79
2022/05/25 09:16:37;;;;;;;7.18;3.78;;;15.80;99.90;;;;;;6249524;22;20008;-76
2022/05/25 09:19:19;;;;;;;8.52;4.32;;;15.80;99.90;;;;;;6250121;22;20011;-79
2022/05/25 09:22:08;;;;;;;8.75;4.55;;;15.90;99.90;;;;;;6249972;22;20035;-77
2022/05/25 09:24:35;;;;;;;10.48;4.68;;;15.90;99.90;;;;;;6233858;22;20118;-76
2022/05/25 09:27:03;;;;;;;7.50;4.40;;;16.00;99.90;;;;;;6250096;22;20014;-77
2022/05/25 09:29:28;;;;;;;9.13;5.72;;;16.10;99.90;;;;;;6250026;22;20003;-78
2022/05/25 09:32:06;;;;;;;6.82;4.35;;;16.10;99.90;;;;;;6277217;22;20057;-78
2022/05/25 09:34:53;;;;;;;9.45;4.85;;;16.20;99.90;;;;;;6249981;22;20345;-78
2022/05/25 09:37:27;;;;;;;6.45;4.43;;;16.20;99.90;;;;;;6249932;22;20091;-80
2022/05/25 09:39:53;;;;;;;7.05;4.93;;;16.20;99.90;;;;;;6277303;22;20022;-79
2022/05/25 09:42:21;;;;;;;6.30;4.15;;;16.20;99.90;;;;;;6249625;22;20016;-77
2022/05/25 09:44:53;;;;;;;7.63;4.65;;;16.20;99.90;;;;;;6250578;22;20345;-78
2022/05/25 09:47:24;;;;;;;9.10;4.22;;;16.10;99.90;;;;;;6276810;22;20446;-76
2022/05/25 09:49:54;;;;;;;9.23;5.20;;;16.10;99.90;;;;;;6277373;22;20011;-78
2022/05/25 09:52:22;;;;;;;7.78;4.40;;;16.20;99.90;;;;;;6249785;22;20020;-76
2022/05/25 09:55:01;;;;;;;7.85;4.75;;;16.30;99.90;;;;;;6249637;22;20015;-78
2022/05/25 09:57:52;;;;;;;8.50;4.72;;;16.50;99.90;;;;;;6249911;22;20392;-80
2022/05/25 10:00:33;;;;;;;9.60;4.95;;;16.80;99.90;;;;;;6183627;23;20027;-76
2022/05/25 10:03:05;;;;;;;9.80;4.80;;;16.80;99.90;;;;;;6265200;22;20066;-78
2022/05/25 10:05:35;;;;;;;6.97;4.10;;;16.90;99.90;;;;;;6249513;22;20059;-78
2022/05/25 10:08:26;;;;;;;6.82;3.42;;;17.00;99.90;;;;;;6276982;22;20016;-76
2022/05/25 10:10:59;;;;;;;10.32;4.55;;;17.00;99.90;;;;;;6249522;22;20012;-76
2022/05/25 10:13:40;;;;;;;8.05;4.60;;;17.00;99.90;;;;;;6277232;22;20011;-78
2022/05/25 10:16:30;;;;;;;8.05;4.10;;;17.10;99.90;;;;;;6249442;22;20015;-78
2022/05/25 10:18:59;;;;;;;6.65;3.95;;;17.20;99.90;;;;;;6203662;22;20042;-78
2022/05/25 10:21:37;;;;;;;6.90;4.10;;;17.10;99.90;;;;;;6276360;22;20035;-77
2022/05/25 10:24:15;;;;;;;11.30;4.70;;;17.10;99.90;;;;;;6249377;22;20008;-77
2022/05/25 10:26:51;;;;;;;5.80;4.25;;;17.20;99.90;;;;;;6249395;22;20011;-78
2022/05/25 10:38:12;;;;;;;10.98;4.68;;;17.10;99.90;;;;;;6249458;22;20020;-78
2022/05/25 10:40:44;;;;;;;8.20;5.43;;;17.00;99.90;;;;;;6274884;22;20008;-77
2022/05/25 10:43:22;;;;;;;7.95;4.90;;;16.90;99.90;;;;;;6276772;22;20012;-78
2022/05/25 10:45:52;;;;;;;12.40;5.75;;;17.00;99.90;;;;;;6249305;22;20035;-77
2022/05/25 10:48:39;;;;;;;8.98;4.43;;;17.10;99.90;;;;;;6276234;22;20077;-79
2022/05/25 10:51:39;;;;;;;9.10;5.63;;;17.20;99.90;;;;;;6224006;22;20012;-80
2022/05/25 10:56:57;;;;;;;8.25;6.32;;;17.10;99.90;;;;;;6249147;22;20022;-77
2022/05/25 11:00:03;;;;;;;9.75;6.20;;;17.00;99.90;;;;;;6248946;22;20020;-77
2022/05/25 11:02:50;;;;;;;9.88;6.00;;;16.90;99.90;;;;;;6248758;22;20379;-79
2022/05/25 11:05:51;;;;;;;9.70;6.55;;;16.80;99.90;;;;;;6249682;22;20008;-77
2022/05/25 11:08:45;;;;;;;11.23;7.15;;;16.50;99.90;;;;;;6277153;22;20008;-79
2022/05/25 11:11:22;;;;;;;15.77;8.52;;;16.30;99.90;;;;;;6276303;22;20008;-79
2022/05/25 11:14:22;;;;;;;13.07;8.35;;;16.00;99.90;;;;;;6277256;22;20012;-78
2022/05/25 11:17:00;;;;;;;20.02;10.30;;;15.70;99.90;;;;;;6249237;22;20046;-77
2022/05/25 11:19:43;;;;;;;11.88;6.72;;;15.50;99.90;;;;;;6249513;22;20015;-78
2022/05/25 11:22:21;;;;;;;9.80;7.15;;;14.80;99.90;;;;;;6224009;22;20026;-80
2022/05/25 11:24:59;;;;;;;11.85;5.93;;;14.50;99.90;;;;;;6249506;22;20018;-80
2022/05/25 11:28:09;;;;;;;10.32;6.53;;;14.20;99.90;;;;;;6249728;22;20011;-83
2022/05/25 11:30:45;;;;;;;10.02;6.55;;;14.00;99.90;;;;;;6276245;22;20464;-79
2022/05/25 11:33:44;;;;;;;13.55;7.40;;;14.00;99.90;;;;;;6277507;22;20011;-80
2022/05/25 11:36:37;;;;;;;8.88;7.25;;;14.00;99.90;;;;;;6276441;22;20465;-79
2022/05/25 11:39:36;;;;;;;10.38;7.47;;;14.20;99.90;;;;;;6276676;22;20011;-78
2022/05/25 11:42:36;;;;;;;11.43;8.45;;;14.50;99.90;;;;;;6251051;22;20012;-75
2022/05/25 11:45:21;;;;;;;14.25;8.32;;;14.90;99.90;;;;;;6254724;22;20014;-77
2022/05/25 11:48:16;;;;;;;8.45;6.28;;;15.10;99.90;;;;;;6254988;22;20061;-78
2022/05/25 11:51:08;;;;;;;11.63;6.53;;;15.40;99.90;;;;;;6281153;22;20081;-77
2022/05/25 11:53:45;;;;;;;9.77;3.00;;;15.70;99.90;;;;;;6254487;22;20016;-78
2022/05/25 11:56:37;;;;;;;6.55;2.75;;;15.80;99.90;;;;;;6251237;22;20077;-80
2022/05/25 11:59:52;;;;;;;5.68;2.75;;;16.00;99.90;;;;;;6250914;22;20341;-79
2022/05/25 12:02:37;;;;;;;9.30;1.30;;;16.20;99.90;;;;;;6129720;23;20021;-77
2022/05/25 12:05:17;;;;;;;6.57;1.42;;;16.40;99.90;;;;;;6154565;23;20444;-78
2022/05/25 12:08:03;;;;;;;5.72;1.75;;;16.60;99.90;;;;;;6211994;22;20012;-78
2022/05/25 12:10:32;;;;;;;7.47;1.33;;;16.70;99.90;;;;;;6278144;22;20096;-78
2022/05/25 12:13:35;;;;;;;4.93;1.00;;;16.70;99.90;;;;;;6250628;22;20015;-80
2022/05/25 12:16:00;;;;;;;3.97;1.48;;;16.80;99.90;;;;;;6250704;22;20018;-77
2022/05/25 12:18:49;;;;;;;4.47;1.10;;;16.90;99.90;;;;;;6250597;22;20012;-78
2022/05/25 12:21:16;;;;;;;6.22;1.20;;;17.10;99.90;;;;;;6251605;22;20011;-77
2022/05/25 12:23:52;;;;;;;6.80;1.13;;;17.20;99.90;;;;;;6250394;22;20086;-78
2022/05/25 12:26:26;;;;;;;5.38;1.10;;;17.20;99.90;;;;;;6250460;22;20012;-76
2022/05/25 12:29:05;;;;;;;7.30;1.33;;;17.10;99.90;;;;;;6277661;22;20425;-79
2022/05/25 12:31:32;;;;;;;3.40;0.90;;;17.10;99.90;;;;;;6277446;22;20007;-77
2022/05/25 12:33:59;;;;;;;4.22;1.00;;;17.10;99.90;;;;;;6278464;22;20295;-77
2022/05/25 12:36:25;;;;;;;2.92;1.00;;;17.20;99.90;;;;;;6250421;22;20015;-78
2022/05/25 12:38:53;;;;;;;4.15;0.88;;;17.20;99.90;;;;;;6250503;22;20008;-78
2022/05/25 12:41:21;;;;;;;5.05;1.00;;;17.20;99.90;;;;;;6277278;22;20012;-79
2022/05/25 12:43:48;;;;;;;2.67;0.80;;;17.10;99.90;;;;;;6250263;22;20442;-80
2022/05/25 12:49:08;;;;;;;3.08;0.90;;;17.10;99.90;;;;;;6250255;22;20094;-76
2022/05/25 12:51:43;;;;;;;4.07;0.82;;;17.20;99.90;;;;;;6277598;22;20012;-78
2022/05/25 12:54:33;;;;;;;6.63;1.10;;;17.50;99.90;;;;;;6250312;22;20003;-78
2022/05/25 12:57:01;;;;;;;2.85;0.93;;;17.40;99.90;;;;;;6224804;22;20242;-80
2022/05/25 12:59:27;;;;;;;5.57;0.93;;;17.30;99.90;;;;;;6250039;22;20021;-78
2022/05/25 13:02:11;;;;;;;2.92;0.80;;;17.20;99.90;;;;;;6249980;22;20024;-78
2022/05/25 13:04:44;;;;;;;4.40;0.90;;;17.10;99.90;;;;;;6250767;22;20414;-79
2022/05/25 13:07:39;;;;;;;4.38;0.85;;;17.10;99.90;;;;;;6278174;22;20395;-76
2022/05/25 13:10:33;;;;;;;4.68;0.73;;;17.10;99.90;;;;;;6255467;22;20018;-75
2022/05/25 13:13:31;;;;;;;5.13;0.60;;;16.90;99.90;;;;;;6282509;22;20022;-78
2022/05/25 13:15:56;;;;;;;3.65;0.70;;;17.10;99.90;;;;;;6225424;22;20012;-78
2022/05/25 13:18:46;;;;;;;6.32;1.08;;;17.20;99.90;;;;;;6250349;22;20122;-77
2022/05/25 13:21:28;;;;;;;6.25;1.05;;;17.20;99.90;;;;;;6277772;22;20323;-77
2022/05/25 13:23:55;;;;;;;4.53;1.15;;;17.30;99.90;;;;;;6250324;22;20073;-78
2022/05/25 13:26:51;;;;;;;1.77;0.70;;;17.30;99.90;;;;;;6277084;22;20013;-80
2022/05/25 13:30:02;;;;;;;5.53;0.80;;;17.20;99.90;;;;;;6277424;22;20019;-79
2022/05/25 13:32:36;;;;;;;4.13;0.80;;;17.20;99.90;;;;;;6277159;22;20008;-77
2022/05/25 13:35:28;;;;;;;3.72;0.65;;;17.20;99.90;;;;;;6224697;22;20385;-79
2022/05/25 13:38:03;;;;;;;3.13;1.00;;;17.30;99.90;;;;;;6249805;22;20022;-77
2022/05/25 13:40:36;;;;;;;4.72;1.00;;;17.20;99.90;;;;;;6224553;22;20011;-79
2022/05/25 13:43:02;;;;;;;6.88;0.93;;;17.00;99.90;;;;;;6277038;22;20083;-79
2022/05/25 13:45:30;;;;;;;6.45;1.10;;;17.00;99.90;;;;;;6249633;22;20012;-77
2022/05/25 13:48:00;;;;;;;2.90;0.95;;;17.20;99.90;;;;;;6249733;22;20030;-79
2022/05/25 13:50:36;;;;;;;5.03;1.10;;;17.20;99.90;;;;;;6276638;22;20015;-80
2022/05/25 13:53:06;;;;;;;5.10;0.82;;;17.40;99.90;;;;;;6249600;22;20019;-82
2022/05/25 13:55:35;;;;;;;4.85;1.02;;;17.30;99.90;;;;;;6277073;22;20015;-79
2022/05/25 13:58:07;;;;;;;2.28;0.75;;;17.20;99.90;;;;;;6276671;22;20015;-79
2022/05/25 14:00:50;;;;;;;2.42;0.88;;;17.20;99.90;;;;;;6249477;22;20016;-78
2022/05/25 14:03:18;;;;;;;3.35;0.70;;;17.20;99.90;;;;;;6276566;22;20046;-79
2022/05/25 14:05:44;;;;;;;5.53;1.10;;;17.20;99.90;;;;;;6249412;22;20442;-79
2022/05/25 14:11:21;;;;;;;5.13;1.05;;;17.10;99.90;;;;;;6249198;22;20019;-79
2022/05/25 14:13:48;;;;;;;4.53;0.93;;;17.00;99.90;;;;;;6276575;22;20020;-79
2022/05/25 14:16:22;;;;;;;3.40;0.77;;;17.00;99.90;;;;;;6276937;22;20085;-77
2022/05/25 14:18:54;;;;;;;6.00;0.82;;;17.10;99.90;;;;;;6249746;22;20323;-80
2022/05/25 14:21:40;;;;;;;5.85;1.00;;;17.10;99.90;;;;;;6249390;22;20015;-79
2022/05/25 14:24:08;;;;;;;5.93;0.80;;;17.10;99.90;;;;;;6250532;22;20018;-78
2022/05/25 14:26:37;;;;;;;3.67;0.80;;;17.20;99.90;;;;;;6276842;22;20007;-77
2022/05/25 14:29:11;;;;;;;3.22;0.90;;;17.20;99.90;;;;;;6224070;22;20008;-78
2022/05/25 14:31:49;;;;;;;4.03;1.00;;;17.10;99.90;;;;;;6249795;22;20038;-78
2022/05/25 14:34:18;;;;;;;5.65;0.85;;;17.10;99.90;;;;;;6276981;22;20026;-78
2022/05/25 14:36:52;;;;;;;4.38;1.40;;;17.00;99.90;;;;;;6249493;22;20015;-77
2022/05/25 14:39:22;;;;;;;5.15;1.50;;;16.80;99.90;;;;;;6224067;22;20016;-77
2022/05/25 14:42:13;;;;;;;7.55;1.30;;;16.70;99.90;;;;;;6276321;22;20008;-80
2022/05/25 14:44:50;;;;;;;7.50;1.13;;;16.70;99.90;;;;;;6208786;22;20018;-79
2022/05/25 14:47:35;;;;;;;8.13;1.35;;;16.60;99.90;;;;;;6275970;22;20426;-80
2022/05/25 14:50:04;;;;;;;7.73;1.73;;;16.70;99.90;;;;;;6249513;22;20426;-80
2022/05/25 14:52:30;;;;;;;10.88;2.17;;;16.60;99.90;;;;;;6250319;22;20015;-79
2022/05/25 14:55:06;;;;;;;4.50;1.10;;;16.60;99.90;;;;;;6224037;22;20011;-79
2022/05/25 14:57:33;;;;;;;9.82;1.70;;;16.60;99.90;;;;;;6249817;22;20124;-78
2022/05/25 15:00:01;;;;;;;5.18;1.15;;;16.50;99.90;;;;;;6249158;22;20020;-78
2022/05/25 15:02:37;;;;;;;6.35;1.77;;;16.60;99.90;;;;;;6249058;22;20012;-79
2022/05/25 15:05:27;;;;;;;7.82;1.73;;;16.60;99.90;;;;;;6249185;22;20012;-79
2022/05/25 15:07:55;;;;;;;6.07;1.13;;;16.60;99.90;;;;;;6224974;22;20012;-77
2022/05/25 15:10:28;;;;;;;6.00;1.13;;;16.60;99.90;;;;;;6276548;22;20018;-78
2022/05/25 15:12:53;;;;;;;8.57;1.58;;;16.50;99.90;;;;;;6277042;22;20045;-78
2022/05/25 15:18:29;;;;;;;8.02;1.77;;;16.60;99.90;;;;;;6279449;22;20406;-78
2022/05/25 15:20:55;;;;;;;9.13;1.55;;;16.70;99.90;;;;;;6251679;22;20012;-79
2022/05/25 15:23:28;;;;;;;7.40;1.20;;;16.60;99.90;;;;;;6278545;22;20019;-78
2022/05/25 15:25:54;;;;;;;9.25;1.48;;;16.80;99.90;;;;;;6278492;22;20031;-76
2022/05/25 15:28:19;;;;;;;11.55;1.50;;;16.70;99.90;;;;;;6251111;22;20445;-78
2022/05/25 15:30:48;;;;;;;8.48;1.73;;;16.70;99.90;;;;;;6278036;22;20039;-78
2022/05/25 15:33:16;;;;;;;7.95;1.25;;;16.70;99.90;;;;;;6251015;22;20024;-79
2022/05/25 15:35:42;;;;;;;9.13;2.22;;;16.70;99.90;;;;;;6278450;22;20008;-79
2022/05/25 15:38:09;;;;;;;7.43;1.33;;;16.60;99.90;;;;;;6251080;22;20020;-79
2022/05/25 15:40:38;;;;;;;8.45;1.40;;;16.50;99.90;;;;;;6250748;22;20038;-78
2022/05/25 15:43:05;;;;;;;8.02;1.40;;;16.50;99.90;;;;;;6250975;22;20070;-80
2022/05/25 15:45:32;;;;;;;5.10;1.40;;;16.50;99.90;;;;;;6276506;22;20012;-80
2022/05/25 15:48:00;;;;;;;8.93;1.17;;;16.50;99.90;;;;;;6238459;22;20019;-81
2022/05/25 15:50:26;;;;;;;7.55;1.20;;;16.50;99.90;;;;;;6278209;22;20012;-79
2022/05/25 15:52:52;;;;;;;13.88;1.77;;;16.50;99.90;;;;;;6250909;22;20016;-80
2022/05/25 15:55:17;;;;;;;7.32;1.20;;;16.50;99.90;;;;;;6278334;22;20012;-80
2022/05/25 15:57:43;;;;;;;7.80;1.17;;;16.50;99.90;;;;;;6250881;22;20098;-79
2022/05/25 16:00:11;;;;;;;6.28;1.15;;;16.50;99.90;;;;;;6250755;22;20020;-79
2022/05/25 16:02:39;;;;;;;9.60;1.13;;;16.50;99.90;;;;;;6250450;22;20381;-78
2022/05/25 16:05:09;;;;;;;8.73;1.60;;;16.60;99.90;;;;;;6277650;22;20012;-79
2022/05/25 16:10:20;;;;;;;8.93;1.55;;;16.50;99.90;;;;;;6277576;22;20019;-78
2022/05/25 16:12:48;;;;;;;7.03;1.13;;;16.50;99.90;;;;;;6277993;22;20371;-78
2022/05/25 16:15:17;;;;;;;12.00;1.67;;;16.50;99.90;;;;;;6278133;22;20329;-76
2022/05/25 16:17:43;;;;;;;6.28;1.33;;;16.40;99.90;;;;;;6278372;22;20009;-78
2022/05/25 16:20:10;;;;;;;7.25;1.30;;;16.40;99.90;;;;;;6250656;22;20008;-77
2022/05/25 16:22:40;;;;;;;11.00;1.20;;;16.40;99.90;;;;;;6250383;22;20428;-80
2022/05/25 16:25:06;;;;;;;6.15;1.10;;;16.40;99.90;;;;;;6250684;22;20445;-79
2022/05/25 16:27:32;;;;;;;6.10;1.15;;;16.30;99.90;;;;;;6250352;22;20384;-78
2022/05/25 16:29:58;;;;;;;6.82;0.82;;;16.20;99.90;;;;;;6238087;22;20008;-80
2022/05/25 16:32:24;;;;;;;10.23;1.42;;;16.20;99.90;;;;;;6277935;22;20034;-78
2022/05/25 16:34:49;;;;;;;9.20;1.30;;;16.10;99.90;;;;;;6250525;22;20023;-78
2022/05/25 16:37:15;;;;;;;6.22;0.90;;;16.00;99.90;;;;;;6277968;22;20015;-81
2022/05/25 16:39:44;;;;;;;10.82;1.10;;;16.00;99.90;;;;;;6251276;22;20026;-78
2022/05/25 16:42:13;;;;;;;7.22;1.20;;;16.00;99.90;;;;;;6277386;22;20055;-82
2022/05/25 16:45:00;;;;;;;6.30;1.10;;;15.90;99.90;;;;;;6250723;22;20065;-77
2022/05/25 16:47:27;;;;;;;6.88;1.40;;;15.90;99.90;;;;;;6250177;22;20018;-80
2022/05/25 16:49:52;;;;;;;8.63;1.05;;;15.90;99.90;;;;;;6251132;22;20012;-79
2022/05/25 16:52:18;;;;;;;6.57;1.15;;;15.80;99.90;;;;;;6250681;22;20099;-80
2022/05/25 16:54:44;;;;;;;4.97;1.20;;;15.70;99.90;;;;;;6250123;22;20028;-79
2022/05/25 16:57:09;;;;;;;6.88;1.20;;;15.50;99.90;;;;;;6277346;22;20401;-79
2022/05/25 16:59:45;;;;;;;13.32;2.08;;;15.40;99.90;;;;;;6250134;22;20460;-80
2022/05/25 17:02:11;;;;;;;6.65;1.20;;;15.30;99.90;;;;;;6277215;22;20331;-81
2022/05/25 17:04:37;;;;;;;9.98;1.27;;;15.20;99.90;;;;;;6249883;22;20018;-78
2022/05/25 17:07:06;;;;;;;8.20;1.48;;;15.10;99.90;;;;;;6279931;22;20030;-79
2022/05/25 17:09:35;;;;;;;7.78;1.77;;;14.90;99.90;;;;;;6278651;22;20038;-78
2022/05/25 17:12:01;;;;;;;6.50;1.30;;;14.80;99.90;;;;;;6279493;22;20453;-80